createdAt,value
2018-05-16T00:01:17.296Z,15.59
2018-05-16T00:03:44.794Z,15.49
2018-05-16T00:06:12.279Z,15.53
2018-05-16T00:08:39.821Z,15.59
2018-05-16T00:11:07.322Z,15.49
2018-05-16T00:13:34.803Z,15.53
2018-05-16T00:16:02.252Z,15.47
2018-05-16T00:18:29.688Z,15.39
2018-05-16T00:20:57.207Z,15.34
2018-05-16T00:23:24.736Z,15.35
2018-05-16T00:25:52.414Z,15.34
2018-05-16T00:28:20.921Z,15.45
2018-05-16T00:30:48.390Z,15.52
2018-05-16T00:33:15.831Z,15.48
2018-05-16T00:35:44.200Z,15.40
2018-05-16T00:38:11.679Z,15.33
2018-05-16T00:40:39.120Z,15.27
2018-05-16T00:43:08.002Z,15.15
2018-05-16T00:45:35.543Z,15.13
2018-05-16T00:48:03.008Z,15.11
2018-05-16T00:50:30.429Z,15.11
2018-05-16T00:52:57.981Z,15.15
2018-05-16T00:55:25.445Z,15.07
2018-05-16T00:57:53.001Z,14.96
2018-05-16T01:00:20.467Z,14.88
2018-05-16T01:02:47.911Z,14.91
2018-05-16T01:05:15.355Z,14.95
2018-05-16T01:07:42.912Z,14.95
2018-05-16T01:10:10.439Z,14.96
2018-05-16T01:12:37.899Z,14.91
2018-05-16T01:15:05.717Z,14.98
2018-05-16T01:17:34.283Z,14.95
2018-05-16T01:20:01.739Z,15.00
2018-05-16T01:22:52.917Z,15.16
2018-05-16T01:25:20.328Z,15.29
2018-05-16T01:27:49.165Z,15.34
2018-05-16T01:30:16.595Z,15.34
2018-05-16T01:32:53.655Z,15.39
2018-05-16T01:35:21.133Z,15.36
2018-05-16T01:37:48.585Z,15.38
2018-05-16T01:40:16.075Z,15.39
2018-05-16T01:42:43.541Z,15.38
2018-05-16T01:45:11.019Z,15.37
2018-05-16T01:47:38.774Z,15.36
2018-05-16T01:50:06.207Z,15.38
2018-05-16T01:52:33.665Z,15.38
2018-05-16T01:55:01.470Z,15.25
2018-05-16T01:57:28.903Z,15.24
2018-05-16T01:59:56.563Z,15.24
2018-05-16T02:02:24.023Z,15.29
2018-05-16T02:04:51.483Z,15.32
2018-05-16T02:07:18.940Z,15.29
2018-05-16T02:09:46.409Z,15.27
2018-05-16T02:12:13.897Z,15.15
2018-05-16T02:14:41.396Z,15.07
2018-05-16T02:17:08.865Z,15.13
2018-05-16T02:19:36.324Z,15.25
2018-05-16T02:22:03.783Z,15.34
2018-05-16T02:24:31.297Z,15.31
2018-05-16T02:26:58.759Z,15.34
2018-05-16T02:29:26.195Z,15.38
2018-05-16T02:31:53.703Z,15.35
2018-05-16T02:34:21.155Z,15.31
2018-05-16T02:36:48.611Z,15.25
2018-05-16T02:39:16.075Z,15.23
2018-05-16T02:41:43.555Z,15.18
2018-05-16T02:44:12.137Z,15.15
2018-05-16T02:46:39.595Z,15.15
2018-05-16T02:49:07.355Z,15.25
2018-05-16T02:51:34.849Z,15.24
2018-05-16T02:54:02.351Z,15.28
2018-05-16T02:56:30.255Z,15.30
2018-05-16T02:58:57.715Z,15.30
2018-05-16T03:01:25.935Z,15.29
2018-05-16T03:03:53.413Z,15.08
2018-05-16T03:06:20.869Z,15.04
2018-05-16T03:08:48.355Z,15.14
2018-05-16T03:11:15.812Z,15.20
2018-05-16T03:13:43.437Z,15.24
2018-05-16T03:16:10.984Z,15.18
2018-05-16T03:18:38.515Z,15.25
2018-05-16T03:21:05.943Z,15.24
2018-05-16T03:23:33.491Z,15.28
2018-05-16T03:26:01.120Z,15.30
2018-05-16T03:28:28.606Z,15.33
2018-05-16T03:30:56.107Z,15.26
2018-05-16T03:33:23.850Z,15.24
2018-05-16T03:35:51.233Z,15.24
2018-05-16T03:38:18.687Z,15.26
2018-05-16T03:40:46.130Z,15.18
2018-05-16T03:43:13.627Z,15.20
2018-05-16T03:45:41.054Z,15.18
2018-05-16T03:48:08.570Z,15.19
2018-05-16T03:50:36.063Z,15.15
2018-05-16T03:55:56.800Z,15.07
2018-05-16T03:58:36.479Z,15.02
2018-05-16T04:01:15.670Z,15.13
2018-05-16T04:03:55.011Z,15.27
2018-05-16T04:06:22.596Z,15.39
2018-05-16T04:08:50.077Z,15.37
2018-05-16T04:11:17.566Z,15.23
2018-05-16T04:13:44.999Z,15.18
2018-05-16T04:16:13.499Z,15.11
2018-05-16T04:18:40.965Z,15.11
2018-05-16T04:21:08.415Z,15.14
2018-05-16T04:23:36.684Z,15.19
2018-05-16T04:26:04.161Z,15.25
2018-05-16T04:28:31.638Z,15.28
2018-05-16T04:30:59.095Z,15.29
2018-05-16T04:33:26.542Z,15.35
2018-05-16T04:35:53.997Z,15.36
2018-05-16T04:38:21.518Z,15.20
2018-05-16T04:40:49.038Z,15.12
2018-05-16T04:43:16.540Z,15.16
2018-05-16T04:45:44.218Z,15.15
2018-05-16T04:48:11.848Z,15.14
2018-05-16T04:50:39.308Z,15.09
2018-05-16T04:53:06.836Z,15.09
2018-05-16T04:55:34.330Z,15.11
2018-05-16T04:58:01.788Z,15.09
2018-05-16T05:00:30.126Z,14.99
2018-05-16T05:02:58.690Z,14.98
2018-05-16T05:05:26.401Z,15.05
2018-05-16T05:07:53.895Z,15.03
2018-05-16T05:10:21.432Z,15.02
2018-05-16T05:12:48.906Z,15.02
2018-05-16T05:15:16.375Z,15.02
2018-05-16T05:17:44.130Z,15.03
2018-05-16T05:20:12.222Z,15.03
2018-05-16T05:22:39.880Z,15.05
2018-05-16T05:25:07.347Z,15.04
2018-05-16T05:27:34.796Z,15.14
2018-05-16T05:30:02.589Z,15.12
2018-05-16T05:32:30.279Z,15.02
2018-05-16T05:34:57.732Z,14.97
2018-05-16T05:37:25.234Z,15.04
2018-05-16T05:39:52.762Z,15.03
2018-05-16T05:42:20.238Z,15.07
2018-05-16T05:44:47.684Z,15.02
2018-05-16T05:47:15.146Z,14.94
2018-05-16T05:49:42.716Z,14.99
2018-05-16T05:52:10.167Z,15.01
2018-05-16T05:54:37.659Z,14.94
2018-05-16T05:57:05.114Z,14.86
2018-05-16T05:59:33.484Z,14.88
2018-05-16T06:02:00.992Z,14.91
2018-05-16T06:04:28.512Z,14.98
2018-05-16T06:06:56.037Z,14.90
2018-05-16T06:09:23.485Z,14.91
2018-05-16T06:11:50.920Z,14.87
2018-05-16T06:14:18.400Z,14.88
2018-05-16T06:16:45.884Z,14.89
2018-05-16T06:19:13.353Z,14.85
2018-05-16T06:21:40.810Z,14.85
2018-05-16T06:24:08.361Z,14.85
2018-05-16T06:26:35.829Z,14.90
2018-05-16T06:29:03.269Z,14.90
2018-05-16T06:31:30.767Z,14.85
2018-05-16T06:33:58.220Z,14.82
2018-05-16T06:36:25.670Z,14.79
2018-05-16T06:38:53.152Z,14.75
2018-05-16T06:41:20.613Z,14.77
2018-05-16T06:43:58.051Z,14.80
2018-05-16T06:46:25.538Z,14.85
2018-05-16T06:48:53.002Z,14.89
2018-05-16T06:51:20.475Z,14.95
2018-05-16T06:53:48.014Z,15.04
2018-05-16T06:56:15.523Z,15.10
2018-05-16T06:58:43.012Z,15.13
2018-05-16T07:01:10.526Z,15.18
2018-05-16T07:03:37.974Z,15.15
2018-05-16T07:06:05.446Z,15.14
2018-05-16T07:08:33.010Z,15.13
2018-05-16T07:11:00.525Z,15.14
2018-05-16T07:13:28.063Z,15.16
2018-05-16T07:15:55.520Z,15.16
2018-05-16T07:18:23.036Z,15.19
2018-05-16T07:20:50.486Z,15.22
2018-05-16T07:23:17.939Z,15.28
2018-05-16T07:25:45.427Z,15.31
2018-05-16T07:28:13.129Z,15.33
2018-05-16T07:30:40.650Z,15.31
2018-05-16T07:33:08.191Z,15.34
2018-05-16T07:35:35.641Z,15.33
2018-05-16T07:38:03.120Z,15.30
2018-05-16T07:40:30.574Z,15.28
2018-05-16T07:42:58.092Z,15.25
2018-05-16T07:45:25.533Z,15.24
2018-05-16T07:47:53.018Z,15.20
2018-05-16T07:50:20.530Z,15.21
2018-05-16T07:52:48.008Z,15.22
2018-05-16T07:55:15.451Z,15.20
2018-05-16T07:57:44.005Z,15.24
2018-05-16T08:00:13.893Z,15.26
2018-05-16T08:03:07.541Z,15.30
2018-05-16T08:05:58.769Z,15.33
2018-05-16T08:08:29.210Z,15.28
2018-05-16T08:10:58.816Z,15.24
2018-05-16T08:15:59.494Z,15.16
2018-05-16T08:18:27.299Z,15.15
2018-05-16T08:20:54.975Z,15.15
2018-05-16T08:23:30.332Z,15.11
2018-05-16T08:26:02.588Z,15.10
2018-05-16T08:28:30.534Z,15.15
2018-05-16T08:34:28.023Z,15.15
2018-05-16T08:36:59.181Z,15.19
2018-05-16T08:39:27.504Z,15.20
2018-05-16T08:41:57.715Z,15.27
2018-05-16T09:20:55.523Z,15.33
2018-05-16T09:23:24.049Z,15.34
2018-05-16T09:25:51.612Z,15.33
2018-05-16T09:28:19.296Z,15.36
2018-05-16T09:30:46.991Z,15.36
2018-05-16T09:33:33.747Z,15.40
2018-05-16T09:36:01.212Z,15.47
2018-05-16T09:38:28.863Z,15.54
2018-05-16T09:40:56.409Z,15.62
2018-05-16T09:43:23.905Z,15.69
2018-05-16T09:45:51.423Z,15.76
2018-05-16T09:48:19.833Z,15.88
2018-05-16T09:50:47.370Z,16.11
2018-05-16T09:53:14.825Z,16.31
2018-05-16T09:55:42.334Z,16.38
2018-05-16T09:58:09.799Z,16.37
2018-05-16T10:00:37.260Z,16.33
2018-05-16T10:03:04.776Z,16.31
2018-05-16T10:05:32.279Z,16.31
2018-05-16T10:07:59.778Z,16.31
2018-05-16T10:10:27.325Z,16.29
2018-05-16T10:12:54.839Z,16.30
2018-05-16T10:15:22.308Z,16.31
2018-05-16T10:17:49.828Z,16.30
2018-05-16T10:20:17.260Z,16.30
2018-05-16T10:22:45.478Z,16.28
2018-05-16T10:25:12.951Z,16.28
2018-05-16T10:27:40.425Z,16.27
2018-05-16T10:30:07.893Z,16.25
2018-05-16T10:32:35.341Z,16.24
2018-05-16T10:35:02.814Z,16.23
2018-05-16T10:37:30.263Z,16.24
2018-05-16T10:39:57.749Z,16.27
2018-05-16T10:42:25.206Z,16.35
2018-05-16T10:44:52.672Z,16.42
2018-05-16T10:47:20.200Z,16.49
2018-05-16T10:49:47.648Z,16.63
2018-05-16T10:52:15.135Z,16.85
2018-05-16T10:54:42.591Z,17.08
2018-05-16T10:57:10.078Z,17.28
2018-05-16T10:59:37.561Z,17.46
2018-05-16T11:02:05.043Z,17.67
2018-05-16T11:04:32.494Z,17.84
2018-05-16T11:06:59.946Z,17.95
2018-05-16T11:09:27.410Z,18.06
2018-05-16T11:11:54.872Z,18.31
2018-05-16T11:14:22.325Z,18.67
2018-05-16T11:16:49.819Z,18.99
2018-05-16T11:19:17.286Z,19.17
2018-05-16T11:21:44.760Z,19.27
2018-05-16T11:24:12.232Z,19.26
2018-05-16T11:26:39.974Z,19.20
2018-05-16T11:29:07.476Z,19.08
2018-05-16T11:31:34.952Z,18.96
2018-05-16T11:34:02.529Z,18.83
2018-05-16T11:36:30.035Z,18.73
2018-05-16T11:38:57.487Z,18.64
2018-05-16T11:41:24.967Z,18.50
2018-05-16T11:43:52.465Z,18.39
2018-05-16T11:46:19.941Z,18.28
2018-05-16T11:48:47.468Z,18.21
2018-05-16T11:51:14.891Z,18.18
2018-05-16T11:53:42.371Z,18.20
2018-05-16T11:56:09.826Z,18.26
2018-05-16T11:58:37.333Z,18.34
2018-05-16T12:01:04.833Z,18.39
2018-05-16T12:03:32.692Z,18.43
2018-05-16T12:06:00.146Z,18.51
2018-05-16T12:08:27.611Z,18.54
2018-05-16T12:10:55.053Z,18.55
2018-05-16T12:13:22.530Z,18.73
2018-05-16T12:15:50.011Z,18.74
2018-05-16T12:18:17.482Z,18.71
2018-05-16T12:20:44.957Z,18.67
2018-05-16T12:23:12.482Z,18.63
2018-05-16T12:25:39.938Z,18.60
2018-05-16T12:28:07.380Z,18.60
2018-05-16T12:30:34.888Z,18.61
2018-05-16T12:33:02.416Z,18.65
2018-05-16T12:35:29.904Z,18.72
2018-05-16T12:37:57.407Z,18.74
2018-05-16T12:40:24.903Z,18.79
2018-05-16T12:43:04.244Z,18.85
2018-05-16T12:45:31.747Z,18.94
2018-05-16T12:47:59.211Z,19.05
2018-05-16T12:50:26.717Z,19.11
2018-05-16T12:52:54.196Z,19.20
2018-05-16T12:55:21.679Z,19.46
2018-05-16T12:57:49.140Z,19.66
2018-05-16T13:00:16.640Z,19.76
2018-05-16T13:02:44.155Z,19.73
2018-05-16T13:05:11.616Z,19.66
2018-05-16T13:07:39.097Z,19.54
2018-05-16T13:10:06.545Z,19.44
2018-05-16T13:12:33.984Z,19.32
2018-05-16T13:15:01.437Z,19.27
2018-05-16T13:17:28.888Z,19.18
2018-05-16T13:19:56.355Z,19.15
2018-05-16T13:22:23.806Z,19.10
2018-05-16T13:24:51.275Z,19.08
2018-05-16T13:27:18.780Z,19.09
2018-05-16T13:29:46.288Z,19.10
2018-05-16T13:32:13.735Z,19.15
2018-05-16T13:34:41.188Z,19.17
2018-05-16T13:37:08.675Z,19.18
2018-05-16T13:39:36.143Z,19.21
2018-05-16T13:42:03.750Z,19.24
2018-05-16T13:44:31.225Z,19.25
2018-05-16T13:46:58.680Z,19.26
2018-05-16T13:49:26.153Z,19.29
2018-05-16T13:51:53.700Z,19.30
2018-05-16T13:54:21.153Z,19.31
2018-05-16T13:56:48.619Z,19.34
2018-05-16T13:59:16.072Z,19.41
2018-05-16T14:01:43.600Z,19.52
2018-05-16T14:04:11.095Z,19.57
2018-05-16T14:06:38.546Z,19.59
2018-05-16T14:09:05.998Z,19.59
2018-05-16T14:11:33.493Z,19.57
2018-05-16T14:14:00.943Z,19.55
2018-05-16T14:16:28.444Z,19.56
2018-05-16T14:18:55.886Z,19.54
2018-05-16T14:21:23.396Z,19.54
2018-05-16T14:23:50.985Z,19.53
2018-05-16T14:26:18.456Z,19.55
2018-05-16T14:28:45.933Z,19.55
2018-05-16T14:31:13.484Z,19.56
2018-05-16T14:33:40.986Z,19.56
2018-05-16T14:36:08.531Z,19.54
2018-05-16T14:38:36.197Z,19.53
2018-05-16T14:41:03.690Z,19.49
2018-05-16T14:43:31.141Z,19.42
2018-05-16T14:45:58.667Z,19.38
2018-05-16T14:48:26.185Z,19.31
2018-05-16T14:50:53.702Z,19.29
2018-05-16T14:53:21.170Z,19.25
2018-05-16T14:55:48.783Z,19.20
2018-05-16T14:58:16.979Z,19.16
2018-05-16T15:00:47.228Z,19.10
2018-05-16T15:03:14.911Z,19.06
2018-05-16T15:05:42.374Z,19.00
2018-05-16T15:08:09.862Z,18.97
2018-05-16T15:10:37.303Z,18.94
2018-05-16T15:13:04.790Z,18.92
2018-05-16T15:15:32.271Z,18.91
2018-05-16T15:17:59.796Z,18.92
2018-05-16T15:20:27.379Z,18.92
2018-05-16T15:22:59.774Z,18.92
2018-05-16T15:25:27.251Z,18.90
2018-05-16T15:27:54.722Z,18.89
2018-05-16T15:30:22.192Z,18.84
2018-05-16T15:32:50.279Z,18.74
2018-05-16T15:35:17.737Z,18.72
2018-05-16T15:37:45.229Z,18.66
2018-05-16T15:40:12.684Z,18.52
2018-05-16T15:42:40.162Z,18.39
2018-05-16T15:45:07.683Z,18.26
2018-05-16T15:47:35.158Z,18.07
2018-05-16T15:50:02.634Z,17.94
2018-05-16T15:52:30.110Z,17.89
2018-05-16T15:54:57.564Z,17.83
2018-05-16T15:57:25.082Z,17.74
2018-05-16T15:59:52.569Z,17.67
2018-05-16T16:02:20.036Z,17.66
2018-05-16T16:04:47.576Z,17.62
2018-05-16T16:07:15.022Z,17.54
2018-05-16T16:09:42.484Z,17.52
2018-05-16T16:12:10.004Z,17.48
2018-05-16T16:14:37.454Z,17.50
2018-05-16T16:17:05.928Z,17.48
2018-05-16T16:19:33.409Z,17.48
2018-05-16T16:22:00.866Z,17.49
2018-05-16T16:24:28.347Z,17.46
2018-05-16T16:26:55.829Z,17.47
2018-05-16T16:29:23.348Z,17.40
2018-05-16T16:31:50.852Z,17.40
2018-05-16T16:34:18.334Z,17.38
2018-05-16T16:36:45.778Z,17.41
2018-05-16T16:39:13.420Z,17.40
2018-05-16T16:41:40.876Z,17.40
2018-05-16T16:44:08.542Z,17.40
2018-05-16T16:46:36.104Z,17.38
2018-05-16T16:49:03.826Z,17.33
2018-05-16T16:51:31.467Z,17.24
2018-05-16T16:54:00.157Z,17.16
2018-05-16T16:56:27.644Z,17.11
2018-05-16T16:58:55.257Z,17.11
2018-05-16T17:01:22.796Z,17.13
2018-05-16T17:03:50.201Z,17.18
2018-05-16T17:06:17.683Z,17.21
2018-05-16T17:08:45.153Z,17.18
2018-05-16T17:11:12.672Z,17.20
2018-05-16T17:13:40.152Z,17.17
2018-05-16T17:16:07.628Z,17.14
2018-05-16T17:18:35.105Z,17.09
2018-05-16T17:21:02.594Z,17.00
2018-05-16T17:23:30.048Z,16.88
2018-05-16T17:25:57.498Z,16.79
2018-05-16T17:28:25.002Z,16.77
2018-05-16T17:30:52.538Z,16.74
2018-05-16T17:33:20.364Z,16.77
2018-05-16T17:35:48.179Z,16.73
2018-05-16T17:38:17.323Z,16.71
2018-05-16T17:40:45.316Z,16.70
2018-05-16T17:45:48.268Z,16.57
2018-05-16T17:48:17.728Z,16.52
2018-05-16T17:50:47.940Z,16.49
2018-05-16T17:53:17.274Z,16.40
2018-05-16T17:55:45.283Z,16.40
2018-05-16T17:58:12.859Z,16.37
2018-05-16T18:00:41.134Z,16.36
2018-05-16T18:03:09.538Z,16.32
2018-05-16T18:05:44.590Z,16.24
2018-05-16T18:11:15.838Z,16.20
2018-05-16T18:20:08.704Z,16.15
2018-05-16T18:22:51.749Z,16.21
2018-05-16T18:25:20.103Z,16.25
2018-05-16T18:27:47.859Z,16.27
2018-05-16T18:30:19.096Z,16.30
2018-05-16T18:32:50.585Z,16.38
2018-05-16T18:35:18.484Z,16.40
2018-05-16T18:37:49.240Z,16.37
2018-05-16T18:43:06.491Z,16.43
2018-05-16T18:48:36.891Z,16.40
2018-05-16T18:53:52.661Z,16.47
2018-05-16T18:56:21.352Z,16.49
2018-05-16T19:01:36.393Z,16.44
2018-05-16T19:04:04.106Z,16.45
2018-05-16T19:06:32.523Z,16.45
2018-05-16T19:14:23.499Z,16.43
2018-05-16T19:16:54.543Z,16.45
2018-05-16T19:19:24.306Z,16.41
2018-05-16T19:21:53.573Z,16.46
2018-05-16T19:24:21.626Z,16.46
2018-05-16T19:29:53.542Z,16.38
2018-05-16T19:32:22.087Z,16.28
2018-05-16T19:35:10.041Z,16.18
2018-05-16T19:37:37.702Z,16.08
2018-05-16T19:40:17.346Z,16.02
2018-05-16T19:43:04.305Z,15.99
2018-05-16T19:45:33.684Z,15.98
2018-05-16T19:50:34.795Z,15.92
2018-05-16T20:08:15.282Z,16.03
2018-05-16T20:10:51.548Z,16.05
2018-05-16T20:13:42.670Z,16.08
2018-05-16T20:16:10.313Z,16.07
2018-05-16T20:56:50.460Z,15.63
2018-05-16T20:59:22.812Z,15.69
2018-05-16T21:01:51.609Z,15.72
2018-05-16T21:04:20.288Z,15.74
2018-05-16T21:06:48.046Z,15.75
2018-05-16T21:09:16.976Z,15.74
2018-05-16T21:11:45.834Z,15.71
2018-05-16T21:16:56.272Z,15.75
2018-05-16T21:19:25.616Z,15.75
2018-05-16T21:21:53.370Z,15.74
2018-05-16T21:24:20.925Z,15.70
2018-05-16T21:26:48.537Z,15.67
2018-05-16T21:29:16.121Z,15.66
2018-05-16T21:31:43.825Z,15.66
2018-05-16T21:34:21.103Z,15.65
2018-05-16T21:36:48.551Z,15.63
2018-05-16T21:39:16.021Z,15.66
2018-05-16T21:41:43.573Z,15.71
2018-05-16T21:44:11.203Z,15.79
2018-05-16T21:46:38.725Z,15.81
2018-05-16T21:49:07.153Z,15.81
2018-05-16T21:51:34.610Z,15.83
2018-05-16T21:54:21.405Z,15.86
2018-05-16T21:56:48.922Z,15.84
2018-05-16T21:59:16.408Z,15.83
2018-05-16T22:01:43.905Z,15.83
2018-05-16T22:04:16.331Z,15.81
2018-05-16T22:06:44.001Z,15.81
2018-05-16T22:09:11.483Z,15.81
2018-05-16T22:11:38.967Z,15.79
2018-05-16T22:14:06.435Z,15.80
2018-05-16T22:16:33.877Z,15.82
2018-05-16T22:19:01.329Z,15.82
2018-05-16T22:21:28.816Z,15.82
2018-05-16T22:23:56.252Z,15.83
2018-05-16T22:26:23.723Z,15.84
2018-05-16T22:28:51.181Z,15.86
2018-05-16T22:31:24.263Z,15.84
2018-05-16T22:33:57.374Z,15.83
2018-05-16T22:36:30.553Z,15.82
2018-05-16T22:39:04.063Z,15.80
2018-05-16T22:41:37.434Z,15.77
2018-05-16T22:47:11.643Z,15.75
2018-05-16T22:49:40.061Z,15.78
2018-05-16T22:52:07.541Z,15.74
2018-05-16T22:57:28.423Z,15.74
2018-05-16T22:59:56.207Z,15.71
2018-05-16T23:02:23.746Z,15.70
2018-05-16T23:04:51.207Z,15.69
2018-05-16T23:07:19.132Z,15.68
2018-05-16T23:09:48.266Z,15.67
2018-05-16T23:12:15.829Z,15.61
2018-05-16T23:14:44.058Z,15.62
2018-05-16T23:17:11.621Z,15.57
2018-05-16T23:19:39.143Z,15.53
2018-05-16T23:22:08.457Z,15.53
2018-05-16T23:24:51.118Z,15.51
2018-05-16T23:27:18.735Z,15.48
2018-05-16T23:29:46.268Z,15.50
2018-05-16T23:32:13.830Z,15.48
2018-05-16T23:34:42.354Z,15.50
2018-05-16T23:37:09.960Z,15.50
2018-05-16T23:39:37.735Z,15.48
2018-05-16T23:42:05.276Z,15.51
2018-05-16T23:44:32.861Z,15.55
2018-05-16T23:47:00.451Z,15.57
2018-05-16T23:49:28.835Z,15.56
2018-05-16T23:51:57.903Z,15.52
2018-05-16T23:54:26.307Z,15.48
2018-05-16T23:56:53.914Z,15.48
2018-05-16T23:59:21.447Z,15.49
